Flight Track Log - Related Links

Times and Time Zones

All times are in EDT time to prevent confusion due to time zone crossing. See the DAL1981 flight status page for this flight to view local times or setup timezone preferences in your user account.

Time Position Orientation Groundspeed Altitude Reporting Facility
EDT Latitude Longitude Course Direction KTS MPH feet Rate Location/Type
Sun 03:48:05 PM 38.6556 -121.5697 78° East 172 198 1,600  Level Oakland Center
Sun 03:49:06 PM 38.6214 -121.5089 126° Southeast 210 242 2,300 1,463 Climbing Oakland Center
Sun 03:50:00 PM 38.4938 -121.2767 80° East  Level FlightAware Approximate
Sun 03:50:08 PM 38.6022 -121.4106 104° East 273 314 4,600  Level Oakland Center
Sun 03:51:00 PM 38.5282 -121.1258 76° East  Level FlightAware Approximate
Sun 03:51:09 PM 38.6122 -121.3083 83° East 292 336 7,200  Level Oakland Center
Sun 03:52:00 PM 38.5574 -120.9725 78° East  Level FlightAware Approximate
Sun 03:52:11 PM 38.6228 -121.2064 82° East 298 343 9,500  Level Oakland Center
Sun 03:53:00 PM 38.5832 -120.8181 78° East  Level FlightAware Approximate
Sun 03:53:12 PM 38.6325 -121.0922 84° East 311 358 10,900  Level Oakland Center
Sun 03:54:13 PM 38.6747 -120.9717 66° East 380 437 12,100 1,610 Climbing Oakland Center
Sun 03:55:15 PM 38.7428 -120.8647 51° Northeast 390 449 14,200 1,951 Climbing Oakland Center
Sun 03:56:16 PM 38.7931 -120.7378 63° Northeast 400 460 16,100 1,707 Climbing Oakland Center
Sun 03:57:18 PM 38.8397 -120.6064 65° Northeast 406 467 17,700 1,548 Climbing Oakland Center
Sun 03:58:20 PM 38.8889 -120.4706 65° Northeast 418 481 19,300 1,463 Climbing Oakland Center
Sun 03:59:21 PM 38.9486 -120.3022 65° Northeast 434 499 20,700 1,279 Climbing Oakland Center
Sun 04:00:22 PM 39.0003 -120.1572 65° Northeast 445 512 21,900 1,279 Climbing Oakland Center
Sun 04:01:23 PM 39.0475 -120.0214 66° East 457 526 23,300 1,317 Climbing Oakland Center
Sun 04:02:25 PM 39.1003 -119.8717 66° East 459 528 24,600 1,171 Climbing Oakland Center
Sun 04:03:26 PM 39.1547 -119.7186 65° Northeast 469 540 25,700 1,073 Climbing Oakland Center
Sun 04:04:28 PM 39.2206 -119.5317 66° East 477 549 26,800 1,024 Climbing Oakland Center
Sun 04:05:29 PM 39.2736 -119.3739 66° East 479 551 27,800 878 Climbing Oakland Center
Sun 04:06:31 PM 39.3286 -119.2142 66° East 485 558 28,600 1,024 Climbing Oakland Center
Sun 04:07:32 PM 39.3858 -119.0447 66° East 486 559 29,900 1,230 Climbing Oakland Center
Sun 04:08:33 PM 39.4400 -118.8875 66° East 479 551 31,100 1,122 Climbing Oakland Center
Sun 04:09:35 PM 39.4978 -118.7328 64° Northeast 486 559 32,200 927 Climbing Oakland Center
Sun 04:10:36 PM 39.5478 -118.5714 68° East 478 550 33,000 390 Climbing Oakland Center
Sun 04:11:38 PM 39.5983 -118.4147 67° East 470 541 33,000  Level Oakland Center
Sun 04:12:39 PM 39.6503 -118.2594 66° East 468 539 33,000  Level Oakland Center
Sun 04:13:43 PM 39.7000 -118.1047 67° East 465 535 33,000  Level Oakland Center
Sun 04:14:42 PM 39.7508 -117.9508 67° East 463 533 33,000  Level Oakland Center
Sun 04:15:43 PM 39.8014 -117.7964 67° East 463 533 33,000  Level Oakland Center
Sun 04:16:45 PM 39.8542 -117.6342 67° East 465 535 33,000  Level Oakland Center
Sun 04:17:46 PM 39.9094 -117.4583 68° East 469 540 33,000  Level Oakland Center
Sun 04:18:42 PM 39.9578 -117.3108 67° East 466 536 33,000  Level Salt Lake Center
Sun 04:19:44 PM 40.0056 -117.1628 67° East 465 535 33,000  Level Salt Lake Center
Sun 04:20:46 PM 40.0522 -117.0136 68° East 466 536 33,000  Level Salt Lake Center
Sun 04:21:48 PM 40.1067 -116.8414 67° East 465 535 33,000  Level Salt Lake Center
Sun 04:22:50 PM 40.1608 -116.6683 68° East 465 535 33,000  Level Salt Lake Center
Sun 04:23:52 PM 40.2069 -116.5197 68° East 465 535 33,000  Level Salt Lake Center
Sun 04:24:54 PM 40.2614 -116.3469 68° East 464 534 33,000  Level Salt Lake Center
Sun 04:25:56 PM 40.3072 -116.1989 68° East 461 531 33,000  Level Salt Lake Center
Sun 04:28:00 PM 40.4072 -115.8714 68° East 469 540 33,000  Level Salt Lake Center
Sun 04:29:02 PM 40.4547 -115.7222 67° East 467 537 33,000  Level Salt Lake Center
Sun 04:30:04 PM 40.5053 -115.5444 69° East 465 535 33,000  Level Salt Lake Center
Sun 04:31:06 PM 40.5500 -115.3933 69° East 466 536 33,000  Level Salt Lake Center
Sun 04:32:08 PM 40.6031 -115.2156 68° East 468 539 33,000  Level Salt Lake Center
Sun 04:34:12 PM 40.7050 -114.8867 68° East 467 537 33,000  Level Salt Lake Center
Sun 04:35:13 PM 40.7494 -114.7314 69° East 461 531 33,000  Level Salt Lake Center
Sun 04:36:15 PM 40.7989 -114.5600 69° East 460 529 33,000  Level Salt Lake Center
Sun 04:37:17 PM 40.8386 -114.4183 70° East 456 525 33,000  Level Salt Lake Center
Sun 04:38:19 PM 40.8842 -114.2611 69° East 457 526 33,000  Level Salt Lake Center
Sun 04:39:21 PM 40.9375 -114.0733 69° East 456 525 33,000  Level Salt Lake Center
Sun 04:40:23 PM 40.9811 -113.9158 70° East 456 525 33,000  Level Salt Lake Center
Sun 04:41:25 PM 41.0253 -113.7589 69° East 456 525 33,000  Level Salt Lake Center
Sun 04:42:27 PM 41.0686 -113.6025 70° East 454 522 33,000  Level Salt Lake Center
Sun 04:43:28 PM 41.1114 -113.4461 70° East 452 520 33,000  Level Salt Lake Center
Sun 04:44:30 PM 41.1539 -113.2872 70° East 455 524 33,000  Level Salt Lake Center
Sun 04:45:32 PM 41.1972 -113.1297 70° East 455 524 33,000 194 Level Salt Lake Center
Sun 04:46:34 PM 41.2881 -112.9683 53° Northeast 453 521 33,400 629 Climbing Salt Lake Center
Sun 04:47:36 PM 41.3706 -112.8383 50° Northeast 457 526 34,300 871 Climbing Salt Lake Center
Sun 04:48:38 PM 41.4181 -112.6831 68° East 453 521 35,200 774 Climbing Salt Lake Center
Sun 04:49:40 PM 41.4597 -112.5242 71° East 453 521 35,900 677 Climbing Salt Lake Center
Sun 04:50:42 PM 41.5011 -112.3653 71° East 452 520 36,600 532 Climbing Salt Lake Center
Sun 04:51:44 PM 41.5411 -112.2072 71° East 449 517 37,000 194 Climbing Salt Lake Center
Sun 04:52:46 PM 41.5817 -112.0489 71° East 449 517 37,000  Level Salt Lake Center
Sun 04:53:47 PM 41.6211 -111.8894 72° East 449 517 37,000  Level Salt Lake Center
Sun 04:54:49 PM 41.6361 -111.6864 84° East 456 525 37,000  Level Salt Lake Center
Sun 04:55:51 PM 41.6483 -111.5186 84° East 453 521 37,000  Level Salt Lake Center
Sun 04:56:53 PM 41.6603 -111.3511 84° East 451 519 37,000  Level Salt Lake Center
Sun 04:57:55 PM 41.6733 -111.1825 84° East 455 524 37,000  Level Salt Lake Center
Sun 04:58:57 PM 41.6847 -111.0136 85° East 455 524 37,000  Level Salt Lake Center
Sun 04:59:59 PM 41.6958 -110.8403 85° East 453 521 37,000  Level Salt Lake Center
Sun 05:01:00 PM 41.7036 -110.6514 87° East 455 524 37,000  Level Salt Lake Center
Sun 05:02:02 PM 41.7094 -110.4886 87° East 457 526 37,000  Level Salt Lake Center
Sun 05:03:04 PM 41.7172 -110.3003 87° East 456 525 37,000  Level Salt Lake Center
Sun 05:04:06 PM 41.7219 -110.1392 88° East 454 522 37,000  Level Salt Lake Center
Sun 05:05:08 PM 41.7286 -109.9758 87° East 458 527 37,000  Level Salt Lake Center
Sun 05:06:10 PM 41.7347 -109.7869 87° East 455 524 37,000  Level Salt Lake Center
Sun 05:07:11 PM 41.7403 -109.6244 87° East 454 522 37,000  Level Salt Lake Center
Sun 05:08:13 PM 41.7469 -109.4344 87° East 454 522 37,000  Level Salt Lake Center
Sun 05:09:15 PM 41.7511 -109.2708 88° East 456 525 37,000  Level Salt Lake Center
Sun 05:10:17 PM 41.7564 -109.1064 87° East 457 526 37,000  Level Salt Lake Center
Sun 05:11:19 PM 41.7606 -108.9136 88° East 459 528 37,000  Level Salt Lake Center
Sun 05:12:21 PM 41.7833 -108.7553 79° East 457 526 37,000  Level Salt Lake Center
Sun 05:13:23 PM 41.8306 -108.5833 70° East 443 510 37,000  Level Salt Lake Center
Sun 05:14:24 PM 41.8703 -108.4339 70° East 444 511 37,000  Level Salt Lake Center
Sun 05:15:26 PM 41.9169 -108.2550 71° East 453 521 37,000  Level Salt Lake Center
Sun 05:16:28 PM 41.9561 -108.1022 71° East 454 522 37,000  Level Salt Lake Center
Sun 05:17:30 PM 41.9956 -107.9458 71° East 461 531 37,000  Level Salt Lake Center
Sun 05:18:32 PM 42.0422 -107.7656 71° East 459 528 37,000  Level Salt Lake Center
Sun 05:19:34 PM 42.0825 -107.6119 70° East 457 526 37,000  Level Salt Lake Center
Sun 05:20:36 PM 42.1283 -107.4322 71° East 456 525 37,000  Level Salt Lake Center
Sun 05:21:38 PM 42.1678 -107.2792 71° East 455 524 37,000  Level Salt Lake Center
Sun 05:22:40 PM 42.2142 -107.0975 71° East 459 528 37,000  Level Salt Lake Center
Sun 05:23:42 PM 42.2525 -106.9411 72° East 460 529 37,000  Level Salt Lake Center
Sun 05:24:44 PM 42.2969 -106.7583 72° East 461 531 37,000  Level Salt Lake Center
Sun 05:26:14 PM 42.3542 -106.5208 72° East 462 532 37,000  Level Denver Center
Sun 05:27:16 PM 42.3933 -106.3600 72° East 464 534 37,000  Level Denver Center
Sun 05:28:18 PM 42.4375 -106.1756 72° East 463 533 37,000  Level Denver Center
Sun 05:29:20 PM 42.4744 -106.0175 72° East 460 529 37,000  Level Denver Center
Sun 05:30:22 PM 42.5178 -105.8325 72° East 461 531 37,000  Level Denver Center
Sun 05:31:24 PM 42.5539 -105.6742 73° East 461 531 37,000  Level Denver Center
Sun 05:32:26 PM 42.5981 -105.4886 72° East 462 532 37,000  Level Denver Center
Sun 05:33:28 PM 42.6339 -105.3286 73° East 462 532 37,000  Level Denver Center
Sun 05:34:30 PM 42.6778 -105.1414 72° East 464 534 37,000  Level Denver Center
Sun 05:35:32 PM 42.7150 -104.9806 72° East 464 534 37,000  Level Denver Center
Sun 05:36:33 PM 42.7519 -104.8169 73° East 467 537 37,000  Level Denver Center
Sun 05:37:35 PM 42.7956 -104.6247 73° East 469 540 37,000  Level Denver Center
Sun 05:38:37 PM 42.8319 -104.4589 73° East 470 541 37,000  Level Denver Center
Sun 05:39:39 PM 42.8736 -104.2686 73° East 467 537 37,000  Level Denver Center
Sun 05:40:41 PM 42.9092 -104.1069 73° East 466 536 37,000  Level Denver Center
Sun 05:41:43 PM 42.9442 -103.9442 74° East 466 536 37,000  Level Denver Center
Sun 05:42:45 PM 42.9856 -103.7531 73° East 470 541 37,000  Level Denver Center
Sun 05:43:47 PM 43.0206 -103.5900 74° East 468 539 37,000  Level Denver Center
Sun 05:44:49 PM 43.0594 -103.3994 74° East 467 537 37,000  Level Denver Center
Sun 05:45:51 PM 43.0942 -103.2375 74° East 464 534 37,000  Level Denver Center
Sun 05:46:52 PM 43.1333 -103.0464 74° East 468 539 37,000  Level Denver Center
Sun 05:47:54 PM 43.1678 -102.8842 74° East 466 536 37,000  Level Denver Center
Sun 05:48:56 PM 43.2061 -102.6933 75° East 464 534 37,000  Level Denver Center
Sun 05:49:58 PM 43.2386 -102.5311 75° East 462 532 37,000  Level Denver Center
Sun 05:51:00 PM 43.2714 -102.3689 74° East 461 531 37,000  Level Denver Center
Sun 05:52:02 PM 43.3094 -102.1800 74° East 462 532 37,000  Level Denver Center
Sun 05:53:04 PM 43.3403 -102.0233 75° East 462 532 37,000  Level Denver Center
Sun 05:54:06 PM 43.3797 -101.8186 75° East 462 532 37,000  Level Denver Center
Sun 05:55:08 PM 43.4131 -101.6475 75° East 463 533 37,000  Level Denver Center
Sun 05:56:09 PM 43.4464 -101.4778 75° East 460 529 37,000  Level Denver Center
Sun 05:57:11 PM 43.4781 -101.3069 76° East 462 532 37,000  Level Denver Center
Sun 05:58:13 PM 43.5106 -101.1372 75° East 459 528 37,000  Level Denver Center
Sun 05:58:49 PM 43.5292 -101.0367 76° East 460 529 37,000  Level Minneapolis Center
Sun 05:59:51 PM 43.5553 -100.9008 75° East 459 528 37,000  Level Minneapolis Center
Sun 06:00:53 PM 43.6008 -100.6583 75° East 466 536 37,000  Level Minneapolis Center
Sun 06:01:55 PM 43.6308 -100.4875 76° East 464 534 37,000  Level Minneapolis Center
Sun 06:03:09 PM 43.6625 -100.3156 76° East 463 533 37,000  Level Minneapolis Center
Sun 06:04:12 PM 43.6997 -100.1097 76° East 463 533 37,000  Level Minneapolis Center
Sun 06:05:14 PM 43.7289 -99.9406 77° East 458 527 37,000  Level Minneapolis Center
Sun 06:06:16 PM 43.7589 -99.7694 76° East 459 528 37,000  Level Minneapolis Center
Sun 06:07:18 PM 43.7950 -99.5631 76° East 460 529 37,000  Level Minneapolis Center
Sun 06:08:20 PM 43.8244 -99.3917 77° East 461 531 37,000  Level Minneapolis Center
Sun 06:09:22 PM 43.8539 -99.2200 77° East 460 529 37,000  Level Minneapolis Center
Sun 06:10:24 PM 43.8822 -99.0486 77° East 458 527 37,000  Level Minneapolis Center
Sun 06:11:26 PM 43.9122 -98.8753 76° East 463 533 37,000  Level Minneapolis Center
Sun 06:12:28 PM 43.9447 -98.6711 77° East 463 533 37,000  Level Minneapolis Center
Sun 06:13:30 PM 43.9733 -98.4969 77° East 463 533 37,000  Level Minneapolis Center
Sun 06:14:44 PM 44.0014 -98.3206 77° East 467 537 37,000  Level Minneapolis Center
Sun 06:15:46 PM 44.0300 -98.1444 77° East 469 540 37,000  Level Minneapolis Center
Sun 06:16:48 PM 44.0625 -97.9342 78° East 465 535 37,000  Level Minneapolis Center
Sun 06:17:51 PM 44.0958 -97.7256 77° East 462 532 37,000  Level Minneapolis Center
Sun 06:18:53 PM 44.1228 -97.5525 78° East 460 529 37,000  Level Minneapolis Center
Sun 06:19:55 PM 44.1486 -97.3808 78° East 455 524 37,000  Level Minneapolis Center
Sun 06:20:57 PM 44.1744 -97.2097 78° East 453 521 37,000  Level Minneapolis Center
Sun 06:21:59 PM 44.1994 -97.0383 78° East 452 520 37,000  Level Minneapolis Center
Sun 06:23:01 PM 44.2203 -96.9019 78° East 451 519 37,000  Level Minneapolis Center
Sun 06:24:03 PM 44.2553 -96.6611 78° East 453 521 37,000  Level Minneapolis Center
Sun 06:25:06 PM 44.2806 -96.4894 78° East 451 519 37,000 -192 Level Minneapolis Center
Sun 06:26:08 PM 44.3058 -96.3164 78° East 450 518 36,600 -629 Descending Minneapolis Center
Sun 06:27:10 PM 44.3314 -96.1425 78° East 444 511 35,700 -968 Descending Minneapolis Center
Sun 06:28:12 PM 44.3714 -95.9889 70° East 423 487 34,600 -1,113 Descending Minneapolis Center
Sun 06:29:14 PM 44.4569 -95.9064 35° Northeast 379 436 33,400 -1,065 Descending Minneapolis Center
Sun 06:30:16 PM 44.5228 -95.7883 52° Northeast 394 453 32,400 -968 Descending Minneapolis Center
Sun 06:31:18 PM 44.5253 -95.6289 89° East 409 471 31,400 -1,016 Descending Minneapolis Center
Sun 06:32:20 PM 44.5069 -95.4592 99° East 434 499 30,300 -1,742 Descending Minneapolis Center
Sun 06:33:22 PM 44.4811 -95.2536 100° East 443 510 27,800 -2,177 Descending Minneapolis Center
Sun 06:34:24 PM 44.4728 -95.0958 94° East 419 482 25,800 -1,984 Descending Minneapolis Center
Sun 06:35:26 PM 44.5100 -94.9556 70° East 389 448 23,700 -2,032 Descending Minneapolis Center
Sun 06:36:28 PM 44.5414 -94.8172 72° East 377 434 21,600 -1,984 Descending Minneapolis Center
Sun 06:37:30 PM 44.5728 -94.6853 71° East 365 420 19,600 -1,984 Descending Minneapolis Center
Sun 06:38:32 PM 44.6053 -94.5431 72° East 353 406 17,500 -1,984 Descending Minneapolis Center
Sun 06:39:34 PM 44.6336 -94.4169 72° East 340 391 15,500 -1,984 Descending Minneapolis Center
Sun 06:40:36 PM 44.6619 -94.2950 72° East 331 381 13,400 -1,853 Descending Minneapolis Center
Sun 06:41:50 PM 44.6894 -94.1744 72° East 325 374 11,300 -1,059 Descending Minneapolis Center
Sun 06:42:52 PM 44.7264 -94.0061 73° East 322 371 11,000 -192 Descending Minneapolis Center
Sun 06:43:55 PM 44.7533 -93.8856 72° East 323 372 10,900 -48 Descending Minneapolis Center
Sun 06:44:57 PM 44.7803 -93.7656 72° East 323 372 10,900 -339 Level Minneapolis Center
Sun 06:45:59 PM 44.8050 -93.6544 73° East 295 339 10,200 -1,113 Descending Minneapolis Center
Sun 06:47:01 PM 44.8283 -93.5483 73° East 281 323 8,600 -1,113 Descending Minneapolis Center
Sun 06:48:03 PM 44.8508 -93.4461 73° East 274 315 7,900 -341 Descending Minneapolis Center
Sun 06:49:04 PM 44.8333 -93.3436 104° East 288 331 7,900  Level Minneapolis Center
Sun 06:50:07 PM 44.7825 -93.2400 125° Southeast 254 292 7,900  Level Minneapolis Center
Sun 06:51:09 PM 44.7422 -93.1567 124° Southeast 244 281 7,900 -290 Level Minneapolis Center
Sun 06:52:11 PM 44.7036 -93.0783 125° Southeast 242 278 7,300 -1,065 Descending Minneapolis Center
Sun 06:53:13 PM 44.7031 -93.0011 91° East 229 264 5,700 -1,306 Descending Minneapolis Center
Sun 06:54:15 PM 44.7564 -93.0256 342° North 209 241 4,600 -1,065 Descending Minneapolis Center

Login

Don't have an account? Register now (free) for customized features, flight alerts, and more!